Fountain Hill, Pennsylvania
Current Conditions -  °F | °C
As of 10:51 PM on Saturday 24 Jan 2015 (Local Time) from KABE Reporting Station
Overcast Overcast  
Wind Chill: 27°   Ceiling: 3700
Heat Index: 35°   Visibility: 10mi
Dew Point: 24°   Wind: 12mph
Humidity: 64%   Direction: 260°W
Pressure: 29.52"   Gusts: 23mph
Location:  40.5862°N, 75.372°W
Report Text: KABE 250351Z 26010G20KT 10SM BKN037 OVC044 02/M04 A2952 RMK AO2 SLP001 T00171044
Loading
Personal Weather Stations






























Interactive Weather Map New forecast layout! Learn more

10-Day Weather Forecast

Advertisements
Track Severe Weather on mobile